Time;durP1;ratioP1;P1;durP2;ratioP2;P2;SDS_P1;SDS_P2;PMS_P1;PMS_P2;Temp;Humidity;BMP_temperature;BMP_pressure;BME280_temperature;BME280_humidity;BME280_pressure;Samples;Min_cycle;Max_cycle;Signal;HPM_P1;HPM_P2
2022/01/18 00:00:01;;;;;;;51.20;17.62;;;;;;;1.61;100.00;99116.22;1792924;78;21027;-89
2022/01/18 00:02:23;;;;;;;55.05;17.12;;;;;;;1.62;100.00;99119.17;1793147;79;21046;-89
2022/01/18 00:04:49;;;;;;;45.38;16.48;;;;;;;1.62;100.00;99119.67;1796046;79;20924;-90
2022/01/18 00:07:15;;;;;;;50.25;17.20;;;;;;;1.64;100.00;99113.09;1796107;79;21071;-90
2022/01/18 00:09:41;;;;;;;44.40;15.23;;;;;;;1.65;100.00;99119.20;1796058;79;20931;-89
2022/01/18 00:15:15;;;;;;;40.85;15.53;;;;;;;1.66;100.00;99118.17;1795637;79;21022;-92
2022/01/18 00:17:40;;;;;;;39.48;15.03;;;;;;;1.61;100.00;99111.44;1792824;79;21022;-91
2022/01/18 00:19:57;;;;;;;34.75;14.15;;;;;;;1.67;100.00;99115.27;1793088;79;20987;-91
2022/01/18 00:22:27;;;;;;;33.70;13.85;;;;;;;1.66;100.00;99116.31;1795917;79;20970;-91
2022/01/18 00:24:53;;;;;;;35.73;14.78;;;;;;;1.67;100.00;99113.94;1795480;79;21058;-92
2022/01/18 00:27:19;;;;;;;34.67;14.50;;;;;;;1.67;100.00;99113.94;1795705;79;21030;-92
2022/01/18 00:30:15;;;;;;;37.15;14.53;;;;;;;1.67;100.00;99117.12;1796141;79;20931;-90
2022/01/18 00:35:05;;;;;;;40.65;14.30;;;;;;;1.65;100.00;99117.87;1721103;83;21090;-91
2022/01/18 00:37:36;;;;;;;37.93;14.07;;;;;;;1.62;100.00;99122.33;1651771;85;21713;-91
2022/01/18 00:40:07;;;;;;;37.55;14.43;;;;;;;1.62;100.00;99121.00;1673752;85;21107;-91
2022/01/18 00:42:33;;;;;;;38.38;13.95;;;;;;;1.61;100.00;99119.40;1674055;85;21071;-92
2022/01/18 00:44:59;;;;;;;41.70;14.93;;;;;;;1.61;100.00;99124.71;1674159;85;21161;-93
2022/01/18 00:47:26;;;;;;;39.85;14.60;;;;;;;1.61;100.00;99128.16;1674420;85;21038;-92
2022/01/18 00:52:20;;;;;;;43.85;15.03;;;;;;;1.59;100.00;99126.29;1562762;90;21042;-91
2022/01/18 00:54:46;;;;;;;39.00;13.85;;;;;;;1.58;100.00;99124.66;1562860;90;21001;-92
2022/01/18 00:57:13;;;;;;;38.05;13.65;;;;;;;1.58;100.00;99125.45;1562553;90;21195;-92
2022/01/18 00:59:41;;;;;;;37.08;14.05;;;;;;;1.57;100.00;99124.38;1562907;90;21277;-91
2022/01/18 01:02:09;;;;;;;36.75;13.22;;;;;;;1.57;100.00;99125.71;1562751;90;21066;-91
2022/01/18 01:04:40;;;;;;;35.52;13.75;;;;;;;1.58;100.00;99131.30;1562917;90;21639;-92
2022/01/18 01:07:06;;;;;;;33.18;11.97;;;;;;;1.58;100.00;99129.44;1559921;90;21655;-91
2022/01/18 01:09:33;;;;;;;28.65;10.35;;;;;;;1.58;100.00;99123.33;1562925;90;21092;-92
2022/01/18 01:12:01;;;;;;;26.93;9.43;;;;;;;1.57;100.00;99129.69;1562764;90;21101;-92
2022/01/18 01:14:28;;;;;;;21.80;8.35;;;;;;;1.54;100.00;99136.28;1562753;90;21292;-91
2022/01/18 01:19:49;;;;;;;19.27;7.47;;;;;;;1.49;100.00;99134.84;1585386;90;21524;-91
2022/01/18 01:35:41;;;;;;;9.83;4.72;;;;;;;1.44;100.00;99144.55;1732145;81;21618;-90
2022/01/18 01:43:36;;;;;;;7.62;3.70;;;;;;;1.39;100.00;99153.77;1746789;82;21047;-91
2022/01/18 01:45:58;;;;;;;6.50;3.00;;;;;;;1.36;100.00;99147.87;1742910;82;21039;-90
2022/01/18 01:48:26;;;;;;;6.33;2.87;;;;;;;1.34;100.00;99144.64;1746384;82;21200;-91
2022/01/18 01:51:01;;;;;;;5.40;2.65;;;;;;;1.33;100.00;99153.66;1746501;82;21005;-91
2022/01/18 01:53:24;;;;;;;6.22;2.52;;;;;;;1.32;100.00;99153.38;1718254;82;21119;-90
2022/01/18 01:55:52;;;;;;;6.65;2.42;;;;;;;1.29;100.00;99147.19;1747008;81;21177;-93
2022/01/18 01:58:25;;;;;;;4.28;2.22;;;;;;;1.28;100.00;99156.72;1750678;81;21112;-90
2022/01/18 02:00:55;;;;;;;4.00;1.90;;;;;;;1.29;100.00;99156.47;1752487;79;22006;-91
2022/01/18 02:03:22;;;;;;;4.42;2.15;;;;;;;1.27;100.00;99167.86;1795881;79;21013;-90
2022/01/18 02:05:48;;;;;;;4.30;2.10;;;;;;;1.25;100.00;99163.30;1766913;79;20970;-89
2022/01/18 02:08:15;;;;;;;3.87;1.90;;;;;;;1.24;100.00;99165.69;1795916;79;21596;-89
2022/01/18 02:10:43;;;;;;;3.70;2.02;;;;;;;1.23;100.00;99170.69;1796140;79;21580;-89
2022/01/18 02:13:13;;;;;;;4.83;2.35;;;;;;;1.24;100.00;99168.34;1795991;79;21956;-88
2022/01/18 02:23:40;;;;;;;4.37;1.80;;;;;;;1.21;100.00;99187.38;1703237;83;21042;-89
2022/01/18 02:26:06;;;;;;;4.22;1.65;;;;;;;1.20;100.00;99182.29;1703504;83;21644;-90
2022/01/18 02:28:32;;;;;;;4.33;1.60;;;;;;;1.19;100.00;99188.12;1703777;83;21628;-89
2022/01/18 02:30:58;;;;;;;4.55;1.72;;;;;;;1.19;100.00;99190.77;1703675;83;21702;-92
2022/01/18 02:33:24;;;;;;;7.40;1.90;;;;;;;1.19;100.00;99194.75;1703684;83;21111;-91
2022/01/18 02:35:52;;;;;;;8.35;2.08;;;;;;;1.16;100.00;99187.78;1702180;83;20906;-90
2022/01/18 02:38:18;;;;;;;5.60;1.65;;;;;;;1.11;100.00;99197.23;1698099;83;21126;-90
2022/01/18 02:40:45;;;;;;;2.80;1.37;;;;;;;1.09;100.00;99201.18;1698141;83;21440;-90
2022/01/18 02:45:57;;;;;;;3.75;1.55;;;;;;;1.08;100.00;99196.89;1698090;83;21042;-89
2022/01/18 02:48:23;;;;;;;5.58;1.60;;;;;;;1.05;100.00;99190.73;1698432;83;21057;-90
2022/01/18 02:50:50;;;;;;;4.87;1.50;;;;;;;1.04;100.00;99194.43;1698507;83;21553;-90
2022/01/18 02:53:18;;;;;;;3.52;1.50;;;;;;;1.01;100.00;99193.56;1698241;83;21013;-90
2022/01/18 02:55:53;;;;;;;4.35;1.52;;;;;;;1.00;100.00;99191.94;1698013;83;21446;-90
2022/01/18 02:58:29;;;;;;;6.12;1.50;;;;;;;0.99;100.00;99191.66;1672470;84;21633;-91
2022/01/18 03:03:25;;;;;;;3.52;1.57;;;;;;;0.97;100.00;99200.36;1672278;84;21069;-92
2022/01/18 03:05:52;;;;;;;8.13;2.10;;;;;;;0.95;100.00;99203.78;1672471;85;21098;-90
2022/01/18 03:08:19;;;;;;;13.15;2.40;;;;;;;0.93;100.00;99216.45;1672042;84;21503;-90
2022/01/18 03:10:45;;;;;;;6.45;2.40;;;;;;;0.91;100.00;99214.02;1672271;85;21113;-91
2022/01/18 03:13:11;;;;;;;6.67;2.25;;;;;;;0.88;100.00;99215.80;1672497;84;21069;-92
2022/01/18 03:15:36;;;;;;;7.95;2.42;;;;;;;0.89;100.00;99221.41;1727874;82;21571;-90
2022/01/18 03:20:34;;;;;;;3.35;1.60;;;;;;;0.84;100.00;99223.94;1679015;85;21084;-90
2022/01/18 03:23:00;;;;;;;8.23;1.90;;;;;;;0.84;100.00;99218.64;1679374;85;21010;-91
2022/01/18 03:28:05;;;;;;;5.75;1.50;;;;;;;0.81;100.00;99222.55;1626064;88;21053;-92
2022/01/18 03:30:38;;;;;;;5.95;1.62;;;;;;;0.82;100.00;99222.83;1625280;88;21113;-90
2022/01/18 03:33:08;;;;;;;3.65;1.45;;;;;;;0.81;100.00;99215.92;1625610;88;21070;-90
2022/01/18 03:35:35;;;;;;;4.37;1.65;;;;;;;0.81;100.00;99211.95;1624398;87;21682;-90
2022/01/18 03:38:01;;;;;;;3.85;1.60;;;;;;;0.82;100.00;99218.86;1607698;89;21033;-90
2022/01/18 03:40:27;;;;;;;9.90;1.95;;;;;;;0.83;100.00;99221.81;1607863;89;21181;-90
2022/01/18 03:42:55;;;;;;;9.05;2.27;;;;;;;0.82;100.00;99225.48;1607630;89;21074;-91
2022/01/18 03:45:27;;;;;;;5.17;2.15;;;;;;;0.81;100.00;99235.81;1607741;89;21101;-90
2022/01/18 03:47:56;;;;;;;8.20;2.45;;;;;;;0.80;100.00;99244.81;1607781;89;21519;-90
2022/01/18 03:50:21;;;;;;;6.85;1.85;;;;;;;0.79;100.00;99250.33;1586006;89;21423;-90
2022/01/18 03:52:48;;;;;;;6.10;2.42;;;;;;;0.82;100.00;99248.55;1608038;89;21117;-91
2022/01/18 03:55:18;;;;;;;9.28;2.10;;;;;;;0.79;100.00;99248.48;1627495;87;21137;-90
2022/01/18 03:57:43;;;;;;;4.72;1.92;;;;;;;0.78;100.00;99257.48;1646927;87;21084;-90
2022/01/18 04:00:17;;;;;;;6.50;2.60;;;;;;;0.78;100.00;99265.44;1647097;87;20899;-90
2022/01/18 04:02:43;;;;;;;7.67;2.77;;;;;;;0.76;100.00;99263.52;1642812;87;21124;-89
2022/01/18 04:05:11;;;;;;;9.30;2.95;;;;;;;0.78;100.00;99266.77;1646575;87;21980;-91
2022/01/18 04:07:37;;;;;;;9.35;2.35;;;;;;;0.78;100.00;99269.94;1646947;87;21053;-89
2022/01/18 04:10:05;;;;;;;7.80;2.50;;;;;;;0.78;100.00;99270.74;1647297;87;21048;-89
2022/01/18 04:12:31;;;;;;;7.15;2.20;;;;;;;0.80;100.00;99269.20;1646925;85;21069;-89
2022/01/18 04:15:00;;;;;;;7.40;2.50;;;;;;;0.78;100.00;99270.74;1646791;87;21738;-89
2022/01/18 04:28:21;;;;;;;9.65;3.27;;;;;;;0.75;100.00;99292.41;1764475;81;20971;-90
2022/01/18 04:30:39;;;;;;;7.30;2.92;;;;;;;0.72;100.00;99291.54;1760355;81;21044;-90
2022/01/18 04:33:05;;;;;;;11.50;3.22;;;;;;;0.65;100.00;99289.00;1764724;81;20929;-89
2022/01/18 04:35:31;;;;;;;13.15;3.50;;;;;;;0.62;100.00;99292.63;1764805;81;20977;-90
2022/01/18 04:37:57;;;;;;;15.40;3.98;;;;;;;0.60;100.00;99290.19;1794484;79;20976;-90
2022/01/18 04:40:28;;;;;;;11.18;3.50;;;;;;;0.58;100.00;99297.55;1796296;79;20967;-89
2022/01/18 04:48:25;;;;;;;9.25;2.87;;;;;;;0.45;100.00;99295.11;1795878;79;21039;-89
2022/01/18 04:50:58;;;;;;;14.85;3.25;;;;;;;0.35;100.00;99291.65;1796023;79;21555;-90
2022/01/18 04:53:26;;;;;;;11.97;3.13;;;;;;;0.29;100.00;99296.53;1794202;79;21042;-89
2022/01/18 04:55:55;;;;;;;14.90;3.15;;;;;;;0.23;100.00;99304.05;1777973;79;21685;-89
2022/01/18 04:58:21;;;;;;;15.95;2.90;;;;;;;0.19;100.00;99311.64;1793202;79;21504;-89
2022/01/18 05:00:50;;;;;;;11.12;2.90;;;;;;;0.17;100.00;99311.57;1795925;79;20977;-89
2022/01/18 05:03:16;;;;;;;8.95;3.30;;;;;;;0.17;100.00;99314.22;1795908;79;21129;-89
2022/01/18 05:05:42;;;;;;;8.00;2.40;;;;;;;0.17;100.00;99315.02;1796201;79;21520;-88
2022/01/18 05:08:13;;;;;;;7.95;2.35;;;;;;;0.17;100.00;99312.38;1796072;79;21014;-88
2022/01/18 05:10:36;;;;;;;10.03;2.70;;;;;;;0.18;100.00;99316.66;1792783;79;21650;-88
2022/01/18 05:13:11;;;;;;;9.60;2.60;;;;;;;0.16;100.00;99320.03;1796210;79;20888;-88
2022/01/18 05:15:40;;;;;;;5.72;2.25;;;;;;;0.16;100.00;99321.88;1793145;79;21003;-88
2022/01/18 05:23:29;;;;;;;9.10;2.40;;;;;;;0.12;100.00;99320.20;1795491;79;21401;-89
2022/01/18 05:25:56;;;;;;;11.93;2.30;;;;;;;0.08;100.00;99315.03;1795760;79;20989;-89
2022/01/18 05:28:22;;;;;;;9.85;2.10;;;;;;;0.01;100.00;99324.11;1784418;80;21503;-89
2022/01/18 05:30:48;;;;;;;11.55;2.12;;;;;;;-0.07;100.00;99339.77;1784431;80;20896;-88
2022/01/18 05:33:14;;;;;;;7.10;2.10;;;;;;;-0.14;100.00;99339.05;1784448;80;21621;-89
2022/01/18 05:35:40;;;;;;;8.35;2.20;;;;;;;-0.24;100.00;99332.44;1762574;80;20872;-88
2022/01/18 05:38:06;;;;;;;8.23;2.55;;;;;;;-0.32;100.00;99339.34;1779403;80;21000;-89
2022/01/18 05:40:33;;;;;;;8.20;2.30;;;;;;;-0.37;100.00;99345.80;1779002;80;21051;-88
2022/01/18 05:43:00;;;;;;;8.15;2.70;;;;;;;-0.41;100.00;99343.79;1778976;80;21058;-89
2022/01/18 05:45:26;;;;;;;10.50;2.77;;;;;;;-0.47;100.00;99340.21;1724273;83;21126;-89
2022/01/18 05:47:52;;;;;;;10.08;2.80;;;;;;;-0.53;100.00;99348.50;1724243;83;21672;-89
2022/01/18 05:50:18;;;;;;;12.10;2.45;;;;;;;-0.58;100.00;99346.21;1724249;83;20887;-88
2022/01/18 05:52:44;;;;;;;13.03;3.72;;;;;;;-0.61;100.00;99342.16;1724286;83;20915;-88
2022/01/18 05:55:10;;;;;;;8.78;2.33;;;;;;;-0.62;100.00;99342.37;1724368;83;20915;-87
2022/01/18 05:57:38;;;;;;;8.05;2.72;;;;;;;-0.66;100.00;99348.61;1724275;83;21147;-88
2022/01/18 06:00:10;;;;;;;9.93;2.70;;;;;;;-0.68;100.00;99349.33;1724231;83;21027;-88
2022/01/18 06:02:44;;;;;;;10.63;2.77;;;;;;;-0.70;100.00;99350.89;1654399;86;21656;-88
2022/01/18 06:07:50;;;;;;;12.23;3.12;;;;;;;-0.67;100.00;99365.52;1654057;86;21650;-88
2022/01/18 06:10:16;;;;;;;9.63;2.55;;;;;;;-0.51;100.00;99367.59;1654640;86;21175;-88
2022/01/18 06:12:41;;;;;;;9.83;3.00;;;;;;;-0.42;100.00;99368.64;1654713;86;20908;-88
2022/01/18 06:15:08;;;;;;;10.45;3.40;;;;;;;-0.29;100.00;99373.30;1654745;86;21128;-88
2022/01/18 06:17:34;;;;;;;8.23;2.72;;;;;;;0.96;100.00;99383.08;1654730;86;21054;-88
2022/01/18 06:20:00;;;;;;;11.03;2.50;;;;;;;2.64;100.00;99379.31;1654178;86;21103;-88
2022/01/18 06:22:26;;;;;;;7.35;2.60;;;;;;;3.35;100.00;99385.06;1654470;86;21171;-88
2022/01/18 06:24:52;;;;;;;9.95;2.85;;;;;;;3.09;100.00;99383.33;1648784;86;21045;-88
2022/01/18 06:27:19;;;;;;;8.55;2.60;;;;;;;2.78;100.00;99383.84;1636069;87;32504;-87
2022/01/18 06:29:45;;;;;;;11.75;3.00;;;;;;;2.54;100.00;99393.23;1614800;87;20898;-90
2022/01/18 06:32:11;;;;;;;9.30;2.55;;;;;;;2.37;100.00;99388.38;1636530;87;20979;-90
2022/01/18 06:34:37;;;;;;;15.30;2.90;;;;;;;2.23;100.00;99397.13;1660873;85;21143;-92
2022/01/18 06:37:06;;;;;;;14.30;3.17;;;;;;;2.10;100.00;99390.76;1666105;85;20904;-91
2022/01/18 06:39:33;;;;;;;10.23;3.17;;;;;;;1.95;100.00;99390.72;1663911;85;21003;-91
2022/01/18 06:41:59;;;;;;;13.22;2.70;;;;;;;1.84;100.00;99400.02;1675062;84;21057;-91
2022/01/18 06:44:25;;;;;;;9.80;2.65;;;;;;;1.77;100.00;99394.31;1700232;83;20982;-91
2022/01/18 06:46:53;;;;;;;10.15;2.55;;;;;;;1.81;100.00;99396.78;1700059;83;21292;-90
2022/01/18 06:49:19;;;;;;;12.88;3.47;;;;;;;1.81;100.00;99398.64;1696235;83;21041;-89
2022/01/18 06:51:46;;;;;;;10.13;2.95;;;;;;;1.78;100.00;99397.25;1700610;83;21069;-90
2022/01/18 06:54:16;;;;;;;11.97;3.33;;;;;;;1.75;100.00;99402.22;1700534;83;21057;-88
2022/01/18 06:56:44;;;;;;;7.67;2.47;;;;;;;1.78;100.00;99412.38;1698618;83;21013;-89
2022/01/18 06:59:07;;;;;;;17.65;3.47;;;;;;;1.84;100.00;99411.45;1698650;83;21034;-88
2022/01/18 07:01:34;;;;;;;18.62;3.47;;;;;;;1.94;100.00;99420.98;1700477;83;22423;-88
2022/01/18 07:03:59;;;;;;;16.45;3.37;;;;;;;2.09;100.00;99413.87;1700523;83;20966;-88
2022/01/18 07:06:25;;;;;;;14.68;3.10;;;;;;;2.21;100.00;99415.18;1723026;81;20910;-88
2022/01/18 07:08:51;;;;;;;14.43;4.30;;;;;;;2.28;100.00;99422.48;1769874;81;21506;-87
2022/01/18 07:11:17;;;;;;;15.98;4.58;;;;;;;2.34;100.00;99418.89;1741458;81;21152;-88
2022/01/18 07:13:43;;;;;;;20.85;6.08;;;;;;;2.31;100.00;99414.05;1740943;81;20879;-88
2022/01/18 07:16:09;;;;;;;24.12;6.42;;;;;;;2.35;100.00;99423.69;1769262;81;20997;-89
2022/01/18 07:18:35;;;;;;;21.80;5.70;;;;;;;2.50;100.00;99430.13;1769509;80;20922;-88
2022/01/18 07:21:01;;;;;;;16.30;4.83;;;;;;;2.66;100.00;99426.44;1769747;81;20981;-87
2022/01/18 07:23:26;;;;;;;18.17;5.00;;;;;;;2.76;100.00;99420.50;1769526;79;21871;-88
2022/01/18 07:25:53;;;;;;;15.65;4.20;;;;;;;2.75;100.00;99433.00;1769660;81;20878;-87
2022/01/18 07:28:19;;;;;;;16.62;3.58;;;;;;;2.75;100.00;99440.98;1779387;79;20999;-90
2022/01/18 07:30:47;;;;;;;13.72;3.60;;;;;;;2.69;100.00;99441.39;1780829;79;21587;-89
2022/01/18 07:33:14;;;;;;;14.53;3.65;;;;;;;2.66;100.00;99447.72;1779143;79;21483;-88
2022/01/18 07:35:41;;;;;;;7.15;2.70;;;;;;;2.60;100.00;99454.78;1774292;80;21565;-88
2022/01/18 07:38:12;;;;;;;11.00;3.12;;;;;;;2.46;100.00;99454.75;1804967;78;21504;-89
2022/01/18 07:40:36;;;;;;;12.68;3.10;;;;;;;2.38;100.00;99450.63;1828708;77;21011;-88
2022/01/18 07:43:04;;;;;;;7.72;2.92;;;;;;;2.23;100.00;99455.08;1828819;78;21038;-88
2022/01/18 07:45:30;;;;;;;10.78;3.12;;;;;;;2.08;100.00;99458.73;1828291;77;21085;-89
2022/01/18 07:47:57;;;;;;;11.53;3.70;;;;;;;2.02;100.00;99456.48;1824089;77;21048;-89
2022/01/18 07:50:24;;;;;;;9.25;3.20;;;;;;;1.95;100.00;99461.12;1824823;77;21385;-90
2022/01/18 07:52:50;;;;;;;11.83;2.90;;;;;;;1.92;100.00;99469.55;1828385;78;21030;-88
2022/01/18 07:55:17;;;;;;;11.28;3.40;;;;;;;1.89;100.00;99472.67;1827384;77;20968;-89
2022/01/18 07:57:43;;;;;;;7.87;2.65;;;;;;;1.87;100.00;99473.94;1827662;77;21329;-91
2022/01/18 08:00:13;;;;;;;6.75;2.67;;;;;;;1.83;100.00;99484.22;1828615;77;21127;-90
2022/01/18 08:02:41;;;;;;;9.10;2.95;;;;;;;1.77;100.00;99493.91;1796279;79;21030;-88
2022/01/18 08:05:10;;;;;;;7.62;2.80;;;;;;;1.72;100.00;99491.64;1800849;77;20982;-88
2022/01/18 08:07:36;;;;;;;5.62;2.10;;;;;;;1.67;100.00;99504.27;1818275;78;21005;-87
2022/01/18 08:10:05;;;;;;;5.75;1.65;;;;;;;1.65;100.00;99508.19;1793103;78;21045;-89
2022/01/18 08:12:31;;;;;;;1.95;0.98;;;;;;;1.61;100.00;99521.63;1818254;78;21078;-88
2022/01/18 08:15:02;;;;;;;3.35;1.00;;;;;;;1.63;100.00;99526.21;1820030;77;21946;-89
2022/01/18 08:17:25;;;;;;;3.47;1.17;;;;;;;1.71;100.00;99550.59;1814290;77;21034;-88
2022/01/18 08:19:51;;;;;;;3.47;1.10;;;;;;;1.75;100.00;99545.11;1818035;77;20843;-87
2022/01/18 08:22:17;;;;;;;1.98;0.65;;;;;;;1.68;100.00;99558.20;1817860;78;20970;-90
2022/01/18 08:24:43;;;;;;;1.60;0.90;;;;;;;1.61;100.00;99554.30;1824648;77;21421;-88
2022/01/18 08:27:13;;;;;;;2.77;0.82;;;;;;;1.66;100.00;99561.08;1826894;78;20994;-90
2022/01/18 08:29:38;;;;;;;2.70;1.00;;;;;;;1.69;100.00;99569.92;1826162;78;21026;-90
2022/01/18 08:32:08;;;;;;;3.17;0.90;;;;;;;1.60;100.00;99568.63;1800896;78;20922;-87
2022/01/18 08:34:34;;;;;;;3.45;1.00;;;;;;;1.44;100.00;99572.73;1795746;78;21035;-90
2022/01/18 08:37:00;;;;;;;2.50;1.10;;;;;;;1.36;100.00;99581.01;1793305;79;21071;-90
2022/01/18 08:39:26;;;;;;;3.92;0.85;;;;;;;1.54;100.00;99578.82;1801205;79;21122;-89
2022/01/18 08:41:52;;;;;;;1.72;0.80;;;;;;;1.61;100.00;99583.51;1801670;79;22766;-90
2022/01/18 08:44:18;;;;;;;2.37;0.90;;;;;;;1.60;100.00;99599.16;1795873;79;20994;-88
2022/01/18 08:46:44;;;;;;;1.62;0.70;;;;;;;1.57;100.00;99596.95;1801345;78;20853;-90
2022/01/18 08:49:11;;;;;;;1.50;0.68;;;;;;;1.56;100.00;99608.09;1796755;79;21044;-90
2022/01/18 08:51:39;;;;;;;3.27;1.05;;;;;;;1.39;100.00;99607.63;1803443;79;21654;-90
2022/01/18 08:54:05;;;;;;;2.90;0.80;;;;;;;1.48;100.00;99611.06;1799863;79;21021;-91
2022/01/18 08:56:32;;;;;;;1.57;0.72;;;;;;;1.41;100.00;99613.49;1805479;78;21597;-89
2022/01/18 08:58:58;;;;;;;2.72;0.90;;;;;;;1.30;100.00;99617.21;1796607;79;21048;-90
2022/01/18 09:01:24;;;;;;;2.17;0.75;;;;;;;1.22;100.00;99630.77;1801408;78;21593;-90
2022/01/18 09:03:50;;;;;;;4.25;0.90;;;;;;;1.16;100.00;99632.19;1802595;79;20905;-89
2022/01/18 09:06:18;;;;;;;2.15;0.90;;;;;;;1.06;100.00;99631.36;1794672;79;21087;-88
2022/01/18 09:08:46;;;;;;;1.67;0.60;;;;;;;1.00;100.00;99631.75;1804120;78;21108;-88
2022/01/18 09:11:12;;;;;;;3.45;1.00;;;;;;;0.99;100.00;99637.27;1802310;79;21082;-88
2022/01/18 09:13:39;;;;;;;2.00;0.90;;;;;;;0.96;100.00;99642.48;1799145;78;21085;-87
2022/01/18 09:16:09;;;;;;;1.90;0.82;;;;;;;0.95;100.00;99642.20;1801150;78;21005;-88
2022/01/18 09:18:37;;;;;;;2.15;1.00;;;;;;;0.88;100.00;99654.22;1751931;81;21093;-88
2022/01/18 09:21:04;;;;;;;1.32;0.90;;;;;;;0.85;100.00;99655.14;1748275;81;21388;-88
2022/01/18 09:23:31;;;;;;;4.80;1.00;;;;;;;0.81;100.00;99654.78;1752124;81;21089;-88
2022/01/18 09:25:58;;;;;;;2.60;1.07;;;;;;;0.66;100.00;99660.95;1739637;81;21195;-88
2022/01/18 09:28:24;;;;;;;2.02;0.88;;;;;;;0.62;100.00;99669.86;1747991;81;21070;-88
2022/01/18 09:30:49;;;;;;;3.58;1.17;;;;;;;0.45;100.00;99676.20;1749843;81;20903;-87
2022/01/18 09:33:16;;;;;;;3.17;0.98;;;;;;;0.46;100.00;99677.02;1752283;81;21082;-88
2022/01/18 09:35:42;;;;;;;11.08;1.40;;;;;;;0.57;100.00;99682.14;1747962;81;21034;-86
2022/01/18 09:38:08;;;;;;;3.85;1.30;;;;;;;0.55;100.00;99689.48;1741926;81;21088;-88
2022/01/18 09:40:38;;;;;;;7.03;1.30;;;;;;;0.35;100.00;99694.93;1734750;81;21095;-87
2022/01/18 09:43:09;;;;;;;3.95;1.25;;;;;;;0.36;100.00;99690.75;1734829;81;21594;-86
2022/01/18 09:45:31;;;;;;;4.85;0.90;;;;;;;0.37;100.00;99698.99;1735780;81;21059;-85
2022/01/18 09:47:59;;;;;;;6.67;1.70;;;;;;;0.34;100.00;99698.62;1735724;81;20919;-88
2022/01/18 09:50:33;;;;;;;5.50;1.30;;;;;;;0.48;100.00;99715.24;1741258;81;21134;-88
2022/01/18 09:53:00;;;;;;;2.35;1.12;;;;;;;0.62;100.00;99722.07;1742099;81;21055;-87
2022/01/18 09:55:30;;;;;;;3.75;1.17;;;;;;;0.56;100.00;99717.61;1737505;81;21125;-88
2022/01/18 09:57:58;;;;;;;2.12;1.07;;;;;;;0.45;100.00;99726.56;1746911;81;21142;-87
2022/01/18 10:00:27;;;;;;;2.45;1.20;;;;;;;0.41;100.00;99720.08;1744210;81;21059;-87
2022/01/18 10:02:53;;;;;;;4.17;1.45;;;;;;;0.37;100.00;99721.52;1741938;81;21242;-89
2022/01/18 10:05:24;;;;;;;2.37;1.05;;;;;;;0.25;100.00;99717.94;1736748;81;21011;-88
2022/01/18 10:08:18;;;;;;;;;;;;;;;;;;;;;
2022/01/18 10:10:49;;;;;;;3.37;1.10;;;;;;;0.18;100.00;99740.50;1493111;94;21179;-89
2022/01/18 10:13:22;;;;;;;2.92;1.20;;;;;;;0.30;100.00;99735.86;1490436;94;21210;-89
2022/01/18 10:16:09;;;;;;;3.25;1.17;;;;;;;0.33;100.00;99739.41;1458092;96;21202;-89
2022/01/18 10:18:44;;;;;;;2.62;1.17;;;;;;;0.44;100.00;99743.50;1468646;96;21362;-88
2022/01/18 10:21:34;;;;;;;2.60;1.15;;;;;;;0.59;100.00;99749.82;1476198;95;21178;-88
2022/01/18 10:24:22;;;;;;;2.75;1.17;;;;;;;0.62;100.00;99752.04;1464124;96;21190;-88
2022/01/18 10:26:54;;;;;;;3.05;1.20;;;;;;;0.75;100.00;99765.70;1454227;96;21108;-86
2022/01/18 10:29:27;;;;;;;3.02;1.32;;;;;;;0.74;100.00;99776.02;1470661;96;21836;-88
2022/01/18 10:31:57;;;;;;;2.67;1.30;;;;;;;0.70;100.00;99777.97;1457254;96;21544;-88
2022/01/18 10:37:13;;;;;;;2.20;1.15;;;;;;;0.50;100.00;99786.89;1464192;96;22313;-87
2022/01/18 10:39:55;;;;;;;4.50;1.27;;;;;;;0.45;100.00;99787.52;1466982;95;21173;-87
2022/01/18 10:42:32;;;;;;;4.87;1.20;;;;;;;0.47;100.00;99794.44;1500211;92;22204;-88
2022/01/18 10:45:12;;;;;;;2.50;1.40;;;;;;;0.56;100.00;99798.45;1530189;91;21731;-85
2022/01/18 10:47:49;;;;;;;5.90;1.32;;;;;;;0.62;100.00;99799.76;1582351;88;21095;-85
2022/01/18 10:50:18;;;;;;;5.00;1.27;;;;;;;0.70;100.00;99807.14;1584087;88;21134;-86
2022/01/18 10:52:43;;;;;;;3.95;1.42;;;;;;;0.67;100.00;99814.48;1591003;88;21091;-86
2022/01/18 10:55:24;;;;;;;3.52;1.45;;;;;;;0.72;100.00;99813.86;1604202;88;21743;-86
2022/01/18 10:57:52;;;;;;;5.65;1.40;;;;;;;1.06;100.00;99813.08;1608588;88;21138;-85
2022/01/18 11:00:25;;;;;;;8.70;1.45;;;;;;;1.24;100.00;99829.08;1606981;87;21155;-85
2022/01/18 11:02:54;;;;;;;3.20;1.22;;;;;;;1.41;100.00;99824.00;1584275;88;21127;-85
2022/01/18 11:05:25;;;;;;;3.67;1.10;;;;;;;1.58;100.00;99829.56;1635629;85;21076;-84
2022/01/18 11:07:53;;;;;;;4.42;1.57;;;;;;;1.41;100.00;99832.48;1712033;81;21201;-85
2022/01/18 11:10:23;;;;;;;4.90;1.67;;;;;;;1.40;100.00;99836.18;1731380;81;21089;-84
2022/01/18 11:13:08;;;;;;;4.30;1.50;;;;;;;1.39;100.00;99829.26;1727125;81;21128;-85
2022/01/18 11:15:37;;;;;;;7.67;1.45;;;;;;;1.44;100.00;99836.87;1719545;81;21077;-85
2022/01/18 11:18:07;;;;;;;8.00;1.65;;;;;;;1.34;100.00;99839.19;1732387;81;22306;-86
2022/01/18 11:20:42;;;;;;;6.17;1.60;;;;;;;1.25;100.00;99840.50;1735121;81;21061;-85
2022/01/18 11:23:09;;;;;;;3.87;1.20;;;;;;;1.11;100.00;99853.86;1733724;81;21057;-85
2022/01/18 11:25:37;;;;;;;4.12;1.52;;;;;;;1.10;100.00;99847.45;1738399;81;21034;-84
2022/01/18 11:28:06;;;;;;;3.98;1.30;;;;;;;1.19;100.00;99848.81;1783048;78;21042;-85
2022/01/18 11:30:37;;;;;;;4.83;1.40;;;;;;;1.05;100.00;99856.05;1828220;78;21433;-84
2022/01/18 11:33:08;;;;;;;5.30;1.42;;;;;;;0.89;100.00;99862.70;1821880;78;21335;-83
2022/01/18 11:36:02;;;;;;;3.40;1.52;;;;;;;0.75;100.00;99866.46;1824028;77;21006;-84
2022/01/18 11:38:48;;;;;;;7.17;1.62;;;;;;;0.63;100.00;99874.80;1725437;80;21128;-83
2022/01/18 11:41:26;;;;;;;5.92;1.62;;;;;;;0.48;100.00;99882.22;1717167;83;21603;-86
2022/01/18 11:43:56;;;;;;;2.77;1.20;;;;;;;0.38;100.00;99887.47;1674005;83;21081;-84
2022/01/18 11:46:38;;;;;;;4.42;1.70;;;;;;;0.29;100.00;99899.30;1667861;83;21606;-87
2022/01/18 11:49:15;;;;;;;3.70;1.37;;;;;;;0.23;100.00;99915.52;1670475;83;22086;-87
2022/01/18 11:51:52;;;;;;;4.17;1.67;;;;;;;0.26;100.00;99918.78;1651837;85;21062;-87
2022/01/18 11:57:03;;;;;;;4.10;1.72;;;;;;;0.19;100.00;99916.97;1408618;100;21217;-87
2022/01/18 11:59:40;;;;;;;4.78;1.55;;;;;;;0.28;100.00;99937.43;1419210;99;21255;-87
2022/01/18 12:02:07;;;;;;;3.50;1.37;;;;;;;0.31;100.00;99948.94;1420741;99;21943;-88
2022/01/18 12:10:23;;;;;;;4.15;1.42;;;;;;;0.37;100.00;99966.65;1378056;103;22415;-86
2022/01/18 12:12:52;;;;;;;5.00;1.65;;;;;;;0.33;100.00;99964.13;1378711;103;22617;-87
2022/01/18 12:15:24;;;;;;;2.75;1.30;;;;;;;0.17;100.00;99973.31;1385341;102;21198;-85
2022/01/18 12:18:03;;;;;;;6.10;1.70;;;;;;;-0.06;100.00;99983.53;1392981;102;21168;-85
2022/01/18 12:20:43;;;;;;;9.20;1.50;;;;;;;-0.09;100.00;99991.41;1393143;102;21244;-84
2022/01/18 12:23:22;;;;;;;3.02;1.40;;;;;;;-0.14;100.00;99997.81;1393133;101;21210;-86
2022/01/18 12:25:57;;;;;;;4.62;1.72;;;;;;;-0.21;100.00;100000.95;1378868;102;21780;-85
2022/01/18 12:29:07;;;;;;;7.05;1.52;;;;;;;-0.24;100.00;99998.72;1378082;103;21230;-85
2022/01/18 12:34:46;;;;;;;6.92;1.62;;;;;;;-0.37;100.00;100017.27;1362906;103;21205;-84
2022/01/18 12:37:24;;;;;;;5.42;1.72;;;;;;;-0.35;100.00;100023.98;1385239;102;21142;-83
2022/01/18 12:40:08;;;;;;;3.15;1.50;;;;;;;-0.41;100.00;100029.25;1361890;104;21065;-84
2022/01/18 12:45:19;;;;;;;5.15;1.85;;;;;;;-0.51;100.00;100046.34;1390969;103;21239;-84
2022/01/18 12:47:51;;;;;;;2.70;1.50;;;;;;;-0.69;100.00;100038.98;1359893;104;21193;-86
2022/01/18 12:50:26;;;;;;;3.00;1.52;;;;;;;-0.69;100.00;100052.72;1316399;104;21216;-84
2022/01/18 12:52:57;;;;;;;3.05;1.40;;;;;;;-0.66;100.00;100050.19;1397121;94;21711;-84
2022/01/18 12:55:46;;;;;;;5.65;2.05;;;;;;;-0.73;100.00;100058.92;1494074;94;21129;-85
2022/01/18 12:58:20;;;;;;;5.47;1.70;;;;;;;-0.85;100.00;100061.84;1488020;96;21223;-85
2022/01/18 13:01:00;;;;;;;8.90;1.98;;;;;;;-0.85;100.00;100075.55;1489616;95;21173;-84
2022/01/18 13:03:37;;;;;;;4.35;1.55;;;;;;;-0.85;100.00;100080.83;1479917;95;21136;-85
2022/01/18 13:06:18;;;;;;;6.45;2.20;;;;;;;-0.92;100.00;100076.84;1507457;92;21126;-84